createdAt,value
2022-12-01T00:01:21.340Z,32.10
2022-12-01T00:03:49.135Z,32.78
2022-12-01T00:06:18.614Z,31.15
2022-12-01T00:09:06.922Z,30.58
2022-12-01T00:11:35.434Z,30.45
2022-12-01T00:14:03.053Z,30.05
2022-12-01T00:16:30.248Z,28.92
2022-12-01T00:18:57.677Z,30.88
2022-12-01T00:21:26.260Z,29.92
2022-12-01T00:23:55.878Z,27.65
2022-12-01T00:26:23.657Z,29.80
2022-12-01T00:28:52.414Z,28.63
2022-12-01T00:31:19.919Z,27.90
2022-12-01T00:33:46.940Z,28.75
2022-12-01T00:36:14.298Z,28.13
2022-12-01T00:38:41.557Z,25.65
2022-12-01T00:41:08.597Z,26.40
2022-12-01T00:43:35.588Z,26.15
2022-12-01T00:46:02.566Z,25.30
2022-12-01T00:48:29.754Z,25.67
2022-12-01T00:50:56.956Z,23.90
2022-12-01T00:53:24.839Z,25.63
2022-12-01T00:55:54.166Z,25.33
2022-12-01T00:58:22.537Z,23.05
2022-12-01T01:00:50.443Z,22.73
2022-12-01T01:03:17.716Z,22.63
2022-12-01T01:05:44.915Z,23.73
2022-12-01T01:08:15.074Z,22.77
2022-12-01T01:10:45.193Z,22.77
2022-12-01T01:13:13.497Z,22.08
2022-12-01T01:15:40.736Z,24.27
2022-12-01T01:18:09.766Z,22.30
2022-12-01T01:20:36.797Z,24.00
2022-12-01T01:23:03.879Z,22.48
2022-12-01T01:25:33.066Z,23.77
2022-12-01T01:28:00.161Z,22.27
2022-12-01T01:30:27.533Z,22.90
2022-12-01T01:32:54.890Z,23.67
2022-12-01T01:35:21.938Z,23.23
2022-12-01T01:37:51.163Z,24.00
2022-12-01T01:40:18.784Z,22.10
2022-12-01T01:42:45.840Z,22.75
2022-12-01T01:45:29.554Z,22.95
2022-12-01T01:47:59.393Z,23.10
2022-12-01T01:50:28.856Z,21.55
2022-12-01T01:53:02.914Z,21.65
2022-12-01T01:55:32.322Z,23.30
2022-12-01T01:58:00.136Z,21.30
2022-12-01T02:00:27.407Z,20.60
2022-12-01T02:02:54.606Z,18.35
2022-12-01T02:05:24.436Z,19.27
2022-12-01T02:07:52.842Z,18.48
2022-12-01T02:10:23.694Z,17.50
2022-12-01T02:13:16.660Z,19.80
2022-12-01T02:16:14.282Z,19.67
2022-12-01T02:18:52.316Z,19.75
2022-12-01T02:21:56.680Z,19.67
2022-12-01T02:24:26.660Z,19.52
2022-12-01T02:27:13.063Z,19.55
2022-12-01T02:30:06.208Z,18.02
2022-12-01T02:32:49.376Z,17.63
2022-12-01T02:35:40.879Z,19.27
2022-12-01T02:38:45.395Z,18.08
2022-12-01T02:41:23.394Z,18.90
2022-12-01T02:44:16.118Z,17.80
2022-12-01T02:47:10.435Z,18.27
2022-12-01T02:49:41.776Z,18.48
2022-12-01T02:52:10.360Z,20.20
2022-12-01T02:54:37.895Z,20.33
2022-12-01T02:57:05.368Z,20.40
2022-12-01T02:59:32.323Z,20.10
2022-12-01T03:02:31.952Z,20.50
2022-12-01T03:05:04.894Z,19.92
2022-12-01T03:07:50.758Z,19.75
2022-12-01T03:10:37.196Z,20.45
2022-12-01T03:13:16.594Z,20.48
2022-12-01T03:16:19.292Z,19.15
2022-12-01T03:18:48.913Z,17.25
2022-12-01T03:21:40.678Z,19.50
2022-12-01T03:24:07.758Z,18.35
2022-12-01T03:26:36.635Z,17.65
2022-12-01T03:29:06.996Z,17.80
2022-12-01T03:31:42.807Z,16.58
2022-12-01T03:34:39.433Z,16.92
2022-12-01T03:37:16.273Z,17.60
2022-12-01T03:39:44.079Z,17.52
2022-12-01T03:42:22.935Z,16.45
2022-12-01T03:44:53.854Z,17.17
2022-12-01T03:47:26.375Z,16.98
2022-12-01T03:49:53.857Z,14.80
2022-12-01T03:52:23.617Z,15.60
2022-12-01T03:55:28.435Z,15.85
2022-12-01T03:58:15.082Z,16.00
2022-12-01T04:00:43.802Z,17.05
2022-12-01T04:03:17.932Z,16.13
2022-12-01T04:05:45.274Z,16.83
2022-12-01T04:08:12.378Z,17.00
2022-12-01T04:10:39.783Z,16.60
2022-12-01T04:13:12.016Z,17.77
2022-12-01T04:15:39.102Z,16.77
2022-12-01T04:18:06.122Z,15.93
2022-12-01T04:20:33.255Z,15.95
2022-12-01T04:23:00.245Z,15.52
2022-12-01T04:25:27.313Z,14.82
2022-12-01T04:27:54.116Z,14.32
2022-12-01T04:30:21.354Z,15.15
2022-12-01T04:32:48.473Z,15.35
2022-12-01T04:35:15.694Z,15.57
2022-12-01T04:37:42.794Z,16.77
2022-12-01T04:40:10.636Z,16.88
2022-12-01T04:42:37.556Z,17.08
2022-12-01T04:45:04.817Z,17.10
2022-12-01T04:47:31.760Z,16.58
2022-12-01T04:49:58.958Z,16.77
2022-12-01T04:52:27.473Z,17.73
2022-12-01T04:54:57.735Z,18.40
2022-12-01T04:57:24.704Z,19.02
2022-12-01T04:59:51.947Z,18.92
2022-12-01T05:02:19.232Z,17.75
2022-12-01T05:04:48.354Z,18.40
2022-12-01T05:07:15.635Z,18.65
2022-12-01T05:09:42.733Z,17.42
2022-12-01T05:12:10.095Z,18.45
2022-12-01T05:14:37.031Z,17.90
2022-12-01T05:17:04.015Z,18.27
2022-12-01T05:19:49.718Z,19.60
2022-12-01T05:22:17.217Z,16.55
2022-12-01T05:24:47.574Z,20.75
2022-12-01T05:27:14.540Z,21.83
2022-12-01T05:29:41.755Z,20.85
2022-12-01T05:32:08.862Z,20.83
2022-12-01T05:34:36.068Z,19.73
2022-12-01T05:37:03.211Z,19.58
2022-12-01T05:39:30.356Z,19.30
2022-12-01T05:41:57.553Z,19.20
2022-12-01T05:44:24.579Z,19.85
2022-12-01T05:46:51.564Z,18.65
2022-12-01T05:49:18.547Z,18.17
2022-12-01T05:51:45.625Z,18.80
2022-12-01T05:54:12.611Z,18.60
2022-12-01T05:56:39.723Z,20.13
2022-12-01T05:59:06.816Z,18.25
2022-12-01T06:01:34.014Z,19.73
2022-12-01T06:04:01.111Z,17.45
2022-12-01T06:06:28.156Z,18.42
2022-12-01T06:08:55.088Z,19.52
2022-12-01T06:11:22.198Z,17.35
2022-12-01T06:13:49.182Z,17.63
2022-12-01T06:16:16.320Z,17.55
2022-12-01T06:18:43.325Z,17.65
2022-12-01T06:21:10.318Z,18.77
2022-12-01T06:23:37.390Z,19.00
2022-12-01T06:26:04.540Z,19.65
2022-12-01T06:28:31.517Z,19.80
2022-12-01T06:31:03.134Z,18.77
2022-12-01T06:33:32.054Z,18.60
2022-12-01T06:36:04.199Z,16.52
2022-12-01T06:38:32.718Z,18.00
2022-12-01T06:40:59.946Z,19.25
2022-12-01T06:43:27.580Z,16.90
2022-12-01T06:46:00.832Z,17.67
2022-12-01T06:48:28.937Z,17.70
2022-12-01T06:51:02.567Z,16.25
2022-12-01T06:53:29.880Z,15.93
2022-12-01T06:56:04.483Z,16.45
2022-12-01T06:58:32.078Z,15.75
2022-12-01T07:00:59.639Z,16.02
2022-12-01T07:03:27.188Z,15.40
2022-12-01T07:06:01.868Z,15.02
2022-12-01T07:08:30.264Z,15.63
2022-12-01T07:10:59.443Z,16.27
2022-12-01T07:13:31.540Z,16.08
2022-12-01T07:16:01.560Z,16.73
2022-12-01T07:18:29.105Z,16.63
2022-12-01T07:21:04.500Z,18.27
2022-12-01T07:23:31.698Z,17.42
2022-12-01T07:26:00.300Z,18.42
2022-12-01T07:28:28.006Z,18.30
2022-12-01T07:31:20.891Z,18.35
2022-12-01T07:33:47.955Z,17.25
2022-12-01T07:36:14.980Z,17.75
2022-12-01T07:38:42.137Z,17.00
2022-12-01T07:41:11.271Z,16.83
2022-12-01T07:43:38.779Z,16.85
2022-12-01T07:46:08.834Z,17.83
2022-12-01T07:48:37.407Z,16.73
2022-12-01T07:51:08.998Z,17.35
2022-12-01T07:53:36.567Z,15.65
2022-12-01T07:56:08.337Z,16.30
2022-12-01T07:58:36.540Z,15.23
2022-12-01T08:01:14.965Z,16.08
2022-12-01T08:03:42.536Z,16.20
2022-12-01T08:06:10.084Z,15.65
2022-12-01T08:08:39.243Z,16.27
2022-12-01T08:11:10.224Z,21.08
2022-12-01T08:13:37.321Z,16.65
2022-12-01T08:16:05.564Z,17.15
2022-12-01T08:18:35.629Z,17.83
2022-12-01T08:21:03.764Z,17.58
2022-12-01T08:23:30.708Z,18.80
2022-12-01T08:26:02.398Z,18.52
2022-12-01T08:28:29.829Z,18.92
2022-12-01T08:30:56.994Z,18.20
2022-12-01T08:33:24.016Z,18.00
2022-12-01T08:35:51.068Z,18.77
2022-12-01T08:38:18.142Z,20.25
2022-12-01T08:40:45.106Z,21.20
2022-12-01T08:43:23.135Z,19.13
2022-12-01T08:46:02.061Z,18.15
2022-12-01T08:48:30.191Z,17.95
2022-12-01T08:51:18.505Z,18.15
2022-12-01T08:53:47.537Z,13.23
2022-12-01T08:56:21.219Z,15.68
2022-12-01T08:58:48.778Z,15.52
2022-12-01T09:01:16.725Z,13.95
2022-12-01T09:03:44.356Z,13.10
2022-12-01T09:06:21.639Z,12.68
2022-12-01T09:08:48.763Z,10.05
2022-12-01T09:11:17.961Z,11.00
2022-12-01T09:13:49.914Z,12.52
2022-12-01T09:16:20.171Z,11.77
2022-12-01T09:18:48.280Z,11.57
2022-12-01T09:21:21.243Z,12.75
2022-12-01T09:23:48.517Z,10.63
2022-12-01T09:26:18.684Z,13.85
2022-12-01T09:28:50.739Z,12.00
2022-12-01T09:31:18.637Z,11.07
2022-12-01T09:33:45.878Z,13.68
2022-12-01T09:36:13.607Z,9.70
2022-12-01T09:38:40.725Z,11.77
2022-12-01T09:44:22.805Z,13.30
2022-12-01T09:47:20.689Z,10.65
2022-12-01T09:50:05.722Z,10.32
2022-12-01T09:53:00.144Z,10.80
2022-12-01T09:55:29.119Z,10.98
2022-12-01T09:57:58.631Z,10.50
2022-12-01T10:00:34.706Z,10.60
2022-12-01T10:03:19.130Z,11.15
2022-12-01T10:06:24.965Z,15.75
2022-12-01T10:08:43.386Z,8.50
2022-12-01T10:11:20.606Z,24.00
2022-12-01T10:13:47.581Z,11.52
2022-12-01T10:16:20.819Z,10.75
2022-12-01T10:18:53.556Z,12.52
2022-12-01T10:21:41.088Z,19.63
2022-12-01T10:24:08.384Z,11.18
2022-12-01T10:26:50.925Z,10.88
2022-12-01T10:29:47.926Z,12.43
2022-12-01T10:32:21.665Z,11.38
2022-12-01T10:34:48.960Z,10.20
2022-12-01T10:37:28.474Z,10.85
2022-12-01T10:39:56.546Z,11.43
2022-12-01T10:42:30.603Z,11.43
2022-12-01T10:45:01.805Z,11.05
2022-12-01T10:47:29.508Z,10.25
2022-12-01T10:49:56.477Z,10.80
2022-12-01T10:52:37.918Z,10.38
2022-12-01T10:55:23.756Z,9.98
2022-12-01T10:57:51.281Z,15.02
2022-12-01T11:00:57.570Z,11.65
2022-12-01T11:03:23.100Z,12.27
2022-12-01T11:05:55.317Z,9.40
2022-12-01T11:08:24.079Z,10.43
2022-12-01T11:10:51.286Z,9.10
2022-12-01T11:13:24.687Z,9.30
2022-12-01T11:15:54.423Z,8.93
2022-12-01T11:18:33.618Z,10.73
2022-12-01T11:21:31.436Z,10.45
2022-12-01T11:23:58.442Z,23.95
2022-12-01T11:26:27.239Z,10.45
2022-12-01T11:29:20.704Z,10.38
2022-12-01T11:31:49.935Z,15.73
2022-12-01T11:34:27.280Z,10.65
2022-12-01T11:36:59.683Z,10.05
2022-12-01T11:39:32.573Z,9.27
2022-12-01T11:42:25.521Z,10.25
2022-12-01T11:45:17.092Z,10.35
2022-12-01T11:48:04.598Z,11.43
2022-12-01T11:50:38.050Z,11.38
2022-12-01T11:53:25.122Z,11.30
2022-12-01T11:55:52.130Z,12.65
2022-12-01T11:58:19.256Z,14.93
2022-12-01T12:00:50.804Z,12.73
2022-12-01T12:03:30.404Z,13.18
2022-12-01T12:06:38.395Z,14.70
2022-12-01T12:09:30.639Z,13.80
2022-12-01T12:12:01.955Z,12.88
2022-12-01T12:14:48.628Z,13.52
2022-12-01T12:17:27.870Z,11.27
2022-12-01T12:20:13.773Z,9.80
2022-12-01T12:23:08.080Z,8.75
2022-12-01T12:26:13.386Z,9.63
2022-12-01T12:29:28.322Z,9.60
2022-12-01T12:32:34.057Z,10.63
2022-12-01T12:35:07.788Z,9.23
2022-12-01T12:37:34.827Z,9.35
2022-12-01T12:40:20.598Z,9.98
2022-12-01T12:42:56.759Z,9.68
2022-12-01T12:45:27.756Z,9.77
2022-12-01T12:47:55.370Z,9.10
2022-12-01T12:50:40.983Z,8.45
2022-12-01T12:53:16.739Z,8.07
2022-12-01T12:55:47.238Z,9.25
2022-12-01T12:58:20.121Z,10.05
2022-12-01T13:00:52.575Z,11.07
2022-12-01T13:03:56.680Z,8.60
2022-12-01T13:06:37.086Z,7.55
2022-12-01T13:09:17.677Z,7.88
2022-12-01T13:11:52.258Z,7.50
2022-12-01T13:14:26.764Z,8.05
2022-12-01T13:16:57.556Z,7.95
2022-12-01T13:19:36.137Z,8.00
2022-12-01T13:22:04.834Z,8.52
2022-12-01T13:24:31.948Z,7.78
2022-12-01T13:27:04.780Z,8.25
2022-12-01T13:29:43.713Z,6.38
2022-12-01T13:32:31.980Z,5.90
2022-12-01T13:35:00.121Z,6.13
2022-12-01T13:37:35.525Z,6.55
2022-12-01T13:40:34.639Z,6.10
2022-12-01T13:43:10.372Z,6.45
2022-12-01T13:45:38.941Z,6.68
2022-12-01T13:48:07.959Z,7.43
2022-12-01T13:50:43.184Z,7.00
2022-12-01T13:53:19.256Z,6.97
2022-12-01T13:56:06.160Z,7.70
2022-12-01T13:58:33.174Z,7.55
2022-12-01T14:01:22.725Z,8.05
2022-12-01T14:04:02.635Z,6.78
2022-12-01T14:06:49.510Z,8.63
2022-12-01T14:09:40.826Z,8.25
2022-12-01T14:12:29.222Z,8.93
2022-12-01T14:14:59.060Z,10.55
2022-12-01T14:17:33.500Z,10.13
2022-12-01T14:20:20.806Z,9.32
2022-12-01T14:22:50.443Z,7.45
2022-12-01T14:25:20.510Z,8.43
2022-12-01T14:27:53.528Z,7.15
2022-12-01T14:30:39.449Z,7.25
2022-12-01T14:33:44.912Z,8.18
2022-12-01T14:36:20.863Z,7.25
2022-12-01T14:38:49.746Z,7.45
2022-12-01T14:41:26.818Z,8.00
2022-12-01T14:44:15.293Z,7.53
2022-12-01T14:46:50.527Z,7.50
2022-12-01T14:49:26.242Z,8.93
2022-12-01T14:51:56.981Z,8.65
2022-12-01T14:54:31.562Z,10.20
2022-12-01T14:57:06.263Z,11.38
2022-12-01T14:59:35.182Z,10.63
2022-12-01T15:02:09.568Z,10.77
2022-12-01T15:05:15.081Z,11.63
2022-12-01T15:07:50.493Z,10.07
2022-12-01T15:10:20.925Z,8.10
2022-12-01T15:12:48.911Z,8.27
2022-12-01T15:15:26.812Z,10.48
2022-12-01T15:17:55.899Z,12.02
2022-12-01T15:20:50.260Z,11.65
2022-12-01T15:23:17.542Z,13.35
2022-12-01T15:25:46.536Z,14.65
2022-12-01T15:28:19.987Z,17.27
2022-12-01T15:30:51.897Z,16.70
2022-12-01T15:33:34.042Z,21.40
2022-12-01T15:36:04.163Z,25.88
2022-12-01T15:38:36.341Z,27.42
2022-12-01T15:43:58.010Z,22.83
2022-12-01T15:46:32.796Z,21.45
2022-12-01T15:49:20.245Z,23.23
2022-12-01T15:51:48.855Z,21.00
2022-12-01T15:54:21.920Z,22.42
2022-12-01T15:56:55.716Z,25.08
2022-12-01T15:59:42.202Z,23.83
2022-12-01T16:02:21.293Z,27.83
2022-12-01T16:04:49.244Z,35.97
2022-12-01T16:07:16.539Z,47.47
2022-12-01T16:09:56.725Z,37.13
2022-12-01T16:12:28.359Z,37.67
2022-12-01T16:15:01.522Z,37.50
2022-12-01T16:17:50.387Z,72.97
2022-12-01T16:20:26.183Z,98.10
2022-12-01T16:22:59.385Z,81.40
2022-12-01T16:25:31.456Z,93.30
2022-12-01T16:27:58.954Z,99.57
2022-12-01T16:30:32.301Z,89.35
2022-12-01T16:33:15.576Z,49.55
2022-12-01T16:39:36.372Z,44.55
2022-12-01T16:42:03.468Z,43.88
2022-12-01T16:44:30.927Z,39.05
2022-12-01T16:46:59.838Z,37.22
2022-12-01T16:49:28.757Z,32.33
2022-12-01T16:51:57.152Z,33.10
2022-12-01T16:54:26.648Z,34.03
2022-12-01T16:56:54.037Z,33.40
2022-12-01T16:59:20.935Z,34.92
2022-12-01T17:01:48.147Z,35.80
2022-12-01T17:04:15.282Z,33.70
2022-12-01T17:06:42.264Z,35.90
2022-12-01T17:09:09.278Z,33.78
2022-12-01T17:11:36.400Z,34.33
2022-12-01T17:14:03.503Z,36.90
2022-12-01T17:16:30.692Z,32.45
2022-12-01T17:19:00.558Z,29.60
2022-12-01T17:21:27.699Z,27.25
2022-12-01T17:23:55.767Z,27.15
2022-12-01T17:26:23.392Z,28.40
2022-12-01T17:28:50.384Z,29.27
2022-12-01T17:31:17.567Z,30.30
2022-12-01T17:33:44.564Z,33.25
2022-12-01T17:36:13.186Z,35.80
2022-12-01T17:38:42.052Z,40.50
2022-12-01T17:41:10.806Z,40.75
2022-12-01T17:43:39.895Z,40.60
2022-12-01T17:46:08.438Z,36.75
2022-12-01T17:48:40.936Z,38.90
2022-12-01T17:51:09.019Z,36.25
2022-12-01T17:53:37.094Z,36.97
2022-12-01T17:56:07.732Z,36.50
2022-12-01T17:58:35.242Z,35.53
2022-12-01T18:01:05.858Z,35.47
2022-12-01T18:03:37.287Z,35.28
2022-12-01T18:06:04.670Z,33.65
2022-12-01T18:08:32.293Z,32.55
2022-12-01T18:11:10.267Z,33.83
2022-12-01T18:13:42.216Z,33.75
2022-12-01T18:16:12.331Z,32.67
2022-12-01T18:18:39.664Z,34.58
2022-12-01T18:21:08.188Z,36.35
2022-12-01T18:23:36.510Z,33.70
2022-12-01T18:26:15.375Z,32.22
2022-12-01T18:28:45.157Z,33.20
2022-12-01T18:31:16.506Z,33.58
2022-12-01T18:33:45.547Z,34.92
2022-12-01T18:36:22.784Z,36.40
2022-12-01T18:38:54.743Z,37.25
2022-12-01T18:41:25.013Z,39.30
2022-12-01T18:43:54.860Z,44.35
2022-12-01T18:46:23.095Z,45.53
2022-12-01T18:48:55.079Z,42.83
2022-12-01T18:51:24.698Z,42.53
2022-12-01T18:53:57.466Z,43.38
2022-12-01T18:56:27.005Z,41.80
2022-12-01T18:59:00.112Z,42.33
2022-12-01T19:01:44.190Z,43.33
2022-12-01T19:04:15.108Z,46.53
2022-12-01T19:06:45.347Z,46.17
2022-12-01T19:09:16.742Z,44.17
2022-12-01T19:11:47.426Z,42.55
2022-12-01T19:14:17.459Z,42.08
2022-12-01T19:16:45.484Z,40.80
2022-12-01T19:19:12.689Z,40.30
2022-12-01T19:21:39.756Z,39.00
2022-12-01T19:24:07.074Z,40.58
2022-12-01T19:26:34.274Z,35.00
2022-12-01T19:29:03.070Z,34.67
2022-12-01T19:31:31.051Z,32.25
2022-12-01T19:33:59.248Z,33.72
2022-12-01T19:36:31.848Z,31.95
2022-12-01T19:39:04.458Z,30.02
2022-12-01T19:41:37.508Z,29.23
2022-12-01T19:44:06.487Z,29.58
2022-12-01T19:46:34.448Z,29.38
2022-12-01T19:49:02.107Z,25.92
2022-12-01T19:51:36.984Z,25.50
2022-12-01T19:54:05.707Z,25.75
2022-12-01T19:56:33.306Z,28.02
2022-12-01T19:59:00.660Z,24.00
2022-12-01T20:01:28.243Z,24.60
2022-12-01T20:03:55.648Z,26.83
2022-12-01T20:06:29.164Z,26.92
2022-12-01T20:08:58.339Z,28.80
2022-12-01T20:11:25.706Z,28.23
2022-12-01T20:13:53.061Z,27.67
2022-12-01T20:16:22.953Z,25.60
2022-12-01T20:18:51.411Z,24.58
2022-12-01T20:21:22.371Z,23.02
2022-12-01T20:24:04.202Z,20.55
2022-12-01T20:26:34.218Z,18.85
2022-12-01T20:29:28.972Z,18.17
2022-12-01T20:31:58.615Z,16.73
2022-12-01T20:34:37.840Z,15.85
2022-12-01T20:37:04.869Z,16.25
2022-12-01T20:39:34.660Z,15.82
2022-12-01T20:42:01.858Z,15.48
2022-12-01T20:44:29.346Z,16.25
2022-12-01T20:46:57.004Z,17.77
2022-12-01T20:49:24.258Z,16.02
2022-12-01T20:51:51.339Z,15.05
2022-12-01T20:54:28.206Z,16.80
2022-12-01T20:56:55.773Z,16.35
2022-12-01T20:59:22.976Z,15.25
2022-12-01T21:01:50.127Z,15.65
2022-12-01T21:04:17.427Z,16.05
2022-12-01T21:06:44.402Z,16.00
2022-12-01T21:09:13.123Z,16.02
2022-12-01T21:12:06.888Z,16.17
2022-12-01T21:14:42.750Z,16.75
2022-12-01T21:17:28.125Z,16.88
2022-12-01T21:20:22.158Z,17.25
2022-12-01T21:22:50.443Z,17.27
2022-12-01T21:25:26.461Z,17.60
2022-12-01T21:27:56.759Z,17.67
2022-12-01T21:30:30.035Z,18.48
2022-12-01T21:33:19.826Z,18.73
2022-12-01T21:35:50.287Z,19.63
2022-12-01T21:38:21.747Z,18.23
2022-12-01T21:43:21.907Z,17.38
2022-12-01T21:46:11.127Z,18.55
2022-12-01T21:48:38.176Z,20.00
2022-12-01T21:51:31.036Z,19.40
2022-12-01T21:53:58.366Z,19.95
2022-12-01T21:56:27.394Z,19.85
2022-12-01T21:58:58.118Z,21.35
2022-12-01T22:01:30.087Z,22.15
2022-12-01T22:04:02.113Z,22.52
2022-12-01T22:06:45.579Z,22.73
2022-12-01T22:09:15.408Z,24.80
2022-12-01T22:11:43.424Z,24.00
2022-12-01T22:14:23.775Z,23.63
2022-12-01T22:16:59.997Z,22.77
2022-12-01T22:19:32.460Z,20.45
2022-12-01T22:22:11.653Z,21.25
2022-12-01T22:24:46.789Z,21.15
2022-12-01T22:27:30.087Z,20.83
2022-12-01T22:30:03.172Z,20.45
2022-12-01T22:32:55.907Z,21.23
2022-12-01T22:35:45.953Z,18.60
2022-12-01T22:38:31.967Z,20.88
2022-12-01T22:41:15.226Z,20.15
2022-12-01T22:43:47.396Z,19.98
2022-12-01T22:46:36.527Z,19.83
2022-12-01T22:49:17.906Z,19.73
2022-12-01T22:52:13.843Z,20.13
2022-12-01T22:54:45.593Z,19.15
2022-12-01T22:57:21.104Z,20.23
2022-12-01T22:59:48.464Z,19.85
2022-12-01T23:02:35.737Z,18.13
2022-12-01T23:05:20.643Z,17.88
2022-12-01T23:07:47.883Z,18.58
2022-12-01T23:10:20.759Z,19.55
2022-12-01T23:12:49.555Z,18.80
2022-12-01T23:15:41.997Z,18.95
2022-12-01T23:18:19.510Z,16.65
2022-12-01T23:20:49.126Z,16.98
2022-12-01T23:23:18.995Z,15.98
2022-12-01T23:25:47.396Z,17.15
2022-12-01T23:28:15.050Z,16.33
2022-12-01T23:30:44.157Z,17.23
2022-12-01T23:33:16.898Z,17.15
2022-12-01T23:36:22.873Z,17.50
2022-12-01T23:38:58.121Z,17.10
2022-12-01T23:41:39.810Z,17.20
2022-12-01T23:44:49.751Z,17.38
2022-12-01T23:47:20.585Z,17.77
2022-12-01T23:49:48.495Z,18.15
2022-12-01T23:52:20.810Z,20.08
2022-12-01T23:54:48.204Z,20.92
2022-12-01T23:57:23.265Z,22.27
2022-12-01T23:59:54.028Z,21.90
